Time;durP1;ratioP1;P1;durP2;ratioP2;P2;SDS_P1;SDS_P2;PMS_P1;PMS_P2;Temp;Humidity;BMP_temperature;BMP_pressure;BME280_temperature;BME280_humidity;BME280_pressure;Samples;Min_cycle;Max_cycle;Signal;HPM_P1;HPM_P2
2023/03/21 00:02:11;;;;;;;10.27;6.33;;;12.10;94.00;;;;;;5113504;28;20439;-57
2023/03/21 00:04:38;;;;;;;10.37;6.23;;;12.10;93.90;;;;;;5113706;28;20450;-57
2023/03/21 00:07:04;;;;;;;12.50;5.90;;;12.10;94.00;;;;;;5113200;28;20941;-57
2023/03/21 00:09:31;;;;;;;11.17;6.03;;;12.00;94.00;;;;;;5113515;28;20453;-57
2023/03/21 00:12:00;;;;;;;9.93;5.80;;;12.10;94.10;;;;;;5116961;28;20811;-57
2023/03/21 00:14:29;;;;;;;13.90;6.73;;;12.10;94.20;;;;;;5117322;28;20565;-58
2023/03/21 00:16:56;;;;;;;12.83;6.17;;;12.00;94.20;;;;;;5117223;28;20474;-58
2023/03/21 00:19:25;;;;;;;12.00;5.80;;;12.10;94.30;;;;;;5117971;28;20451;-57
2023/03/21 00:21:54;;;;;;;13.87;6.80;;;12.00;94.20;;;;;;5116899;28;20461;-57
2023/03/21 00:24:21;;;;;;;13.40;7.10;;;12.10;94.20;;;;;;5117647;28;20520;-57
2023/03/21 00:26:48;;;;;;;17.40;6.97;;;12.10;94.20;;;;;;5117181;28;20502;-57
2023/03/21 00:29:15;;;;;;;17.03;7.63;;;12.10;94.20;;;;;;5116782;28;20451;-57
2023/03/21 00:31:43;;;;;;;13.80;7.33;;;12.10;94.30;;;;;;5117051;28;20451;-57
2023/03/21 00:34:10;;;;;;;12.83;7.10;;;12.00;94.40;;;;;;5116819;28;20470;-57
2023/03/21 00:36:37;;;;;;;25.83;8.33;;;12.10;94.60;;;;;;5117110;28;20447;-58
2023/03/21 00:39:05;;;;;;;21.07;7.97;;;12.10;94.60;;;;;;5116575;28;20852;-57
2023/03/21 00:41:32;;;;;;;18.20;7.60;;;12.10;94.60;;;;;;5116756;28;20442;-57
2023/03/21 00:43:59;;;;;;;15.20;6.47;;;12.10;94.70;;;;;;5116349;28;21018;-58
2023/03/21 00:46:25;;;;;;;14.73;7.00;;;12.10;94.80;;;;;;5116742;28;20465;-57
2023/03/21 00:48:53;;;;;;;14.87;7.13;;;12.00;94.70;;;;;;5116689;28;20443;-57
2023/03/21 00:51:25;;;;;;;13.20;8.03;;;12.00;94.80;;;;;;5116903;28;20454;-58
2023/03/21 00:53:52;;;;;;;12.93;6.80;;;12.00;94.80;;;;;;5116274;28;20990;-57
2023/03/21 00:56:19;;;;;;;12.83;7.40;;;12.00;94.90;;;;;;5117090;28;20455;-57
2023/03/21 00:58:45;;;;;;;12.97;7.07;;;12.00;94.90;;;;;;5116399;28;20508;-57
2023/03/21 01:01:12;;;;;;;16.97;8.60;;;12.00;95.00;;;;;;5116643;28;20477;-58
2023/03/21 01:03:46;;;;;;;16.10;7.70;;;11.90;95.10;;;;;;5115996;28;20988;-57
2023/03/21 01:06:18;;;;;;;15.90;7.30;;;11.90;95.20;;;;;;5115921;28;20909;-58
2023/03/21 01:08:47;;;;;;;17.00;8.33;;;11.90;95.50;;;;;;5116363;28;20793;-57
2023/03/21 01:11:16;;;;;;;15.07;7.97;;;11.80;95.50;;;;;;5115937;28;20447;-57
2023/03/21 01:13:43;;;;;;;12.00;7.20;;;11.80;95.70;;;;;;5116514;28;20467;-57
2023/03/21 01:16:10;;;;;;;13.80;7.83;;;11.80;95.70;;;;;;5116159;28;20454;-57
2023/03/21 01:18:38;;;;;;;19.73;7.63;;;11.80;96.00;;;;;;5115768;28;20991;-57
2023/03/21 01:21:09;;;;;;;16.97;7.40;;;11.80;96.20;;;;;;5115999;28;20442;-57
2023/03/21 01:23:37;;;;;;;19.50;7.50;;;11.80;96.20;;;;;;5115933;28;20469;-59
2023/03/21 01:26:05;;;;;;;20.43;7.23;;;11.70;96.30;;;;;;5115772;28;20815;-57
2023/03/21 01:28:32;;;;;;;13.87;6.77;;;11.70;96.40;;;;;;5115888;28;20451;-57
2023/03/21 01:31:01;;;;;;;14.40;7.50;;;11.60;96.60;;;;;;5115877;28;20455;-57
2023/03/21 01:33:28;;;;;;;19.87;7.60;;;11.70;96.80;;;;;;5115903;28;20475;-57
2023/03/21 01:35:55;;;;;;;10.67;6.83;;;11.70;96.90;;;;;;5115642;28;20476;-57
2023/03/21 01:38:22;;;;;;;13.03;7.07;;;11.60;97.00;;;;;;5115500;28;20483;-57
2023/03/21 01:40:51;;;;;;;11.67;7.40;;;11.60;97.10;;;;;;5115701;28;20504;-57
2023/03/21 01:43:28;;;;;;;19.37;8.13;;;11.60;97.10;;;;;;5115452;28;20473;-57
2023/03/21 01:46:21;;;;;;;11.50;6.70;;;11.60;97.00;;;;;;5115607;28;20438;-57
2023/03/21 01:48:51;;;;;;;12.43;7.10;;;11.70;97.00;;;;;;5115353;28;20435;-57
2023/03/21 01:51:19;;;;;;;15.67;8.57;;;11.70;96.90;;;;;;5115441;28;20435;-59
2023/03/21 01:53:46;;;;;;;13.07;7.27;;;11.80;96.90;;;;;;5115722;28;20458;-58
2023/03/21 01:56:19;;;;;;;14.37;7.03;;;11.70;96.90;;;;;;5115668;28;20450;-58
2023/03/21 01:58:46;;;;;;;10.53;6.60;;;11.80;96.90;;;;;;5115272;28;20471;-57
2023/03/21 02:01:14;;;;;;;17.23;7.80;;;11.80;96.90;;;;;;5115264;28;20470;-58
2023/03/21 02:03:49;;;;;;;14.73;7.03;;;11.80;96.90;;;;;;5114839;28;21010;-58
2023/03/21 02:06:29;;;;;;;15.40;7.30;;;11.80;96.90;;;;;;5114925;28;20435;-60
2023/03/21 02:09:03;;;;;;;16.87;7.33;;;11.80;97.00;;;;;;5115027;28;20427;-57
2023/03/21 02:11:32;;;;;;;13.87;6.60;;;11.90;97.10;;;;;;5114991;28;20438;-58
2023/03/21 02:13:59;;;;;;;16.50;7.10;;;11.90;97.20;;;;;;5115271;28;20459;-57
2023/03/21 02:16:35;;;;;;;13.47;6.77;;;11.90;97.00;;;;;;5114939;28;20443;-58
2023/03/21 02:19:18;;;;;;;13.93;6.83;;;11.90;97.00;;;;;;5115054;28;20466;-58
2023/03/21 02:22:19;;;;;;;17.80;7.57;;;11.90;96.90;;;;;;5114917;28;20500;-57
2023/03/21 02:25:25;;;;;;;13.43;6.67;;;12.00;96.90;;;;;;5114851;28;20427;-58
2023/03/21 02:28:00;;;;;;;14.37;6.63;;;12.00;96.90;;;;;;5114445;28;20904;-58
2023/03/21 02:30:47;;;;;;;13.77;6.00;;;12.00;96.90;;;;;;5114787;28;20434;-57
2023/03/21 02:33:44;;;;;;;13.60;8.30;;;11.90;96.90;;;;;;5114160;28;20524;-57
2023/03/21 02:36:21;;;;;;;17.40;7.77;;;11.90;96.90;;;;;;5114560;28;20484;-57
2023/03/21 02:38:56;;;;;;;15.00;7.10;;;11.80;96.90;;;;;;5114250;28;20904;-57
2023/03/21 02:41:33;;;;;;;19.03;7.57;;;11.80;97.10;;;;;;5114532;28;20463;-58
2023/03/21 02:44:07;;;;;;;14.40;7.40;;;11.80;97.20;;;;;;5114463;28;20473;-58
2023/03/21 02:46:39;;;;;;;15.50;7.33;;;11.70;97.30;;;;;;5114744;28;20438;-58
2023/03/21 02:49:12;;;;;;;15.17;6.83;;;11.70;97.40;;;;;;5115716;28;20419;-58
2023/03/21 02:51:42;;;;;;;13.43;7.03;;;11.70;97.50;;;;;;5114748;28;20961;-58
2023/03/21 02:54:13;;;;;;;14.17;6.73;;;11.70;97.50;;;;;;5114766;27;20486;-58
2023/03/21 02:56:41;;;;;;;14.03;7.03;;;11.60;97.50;;;;;;5114294;28;20431;-57
2023/03/21 02:59:09;;;;;;;12.53;5.93;;;11.60;97.60;;;;;;5114286;28;20479;-58
2023/03/21 03:01:36;;;;;;;15.00;7.27;;;11.60;97.70;;;;;;5113971;28;20472;-57
2023/03/21 03:04:03;;;;;;;18.13;7.87;;;11.60;97.70;;;;;;5113959;28;20881;-58
2023/03/21 03:06:36;;;;;;;22.60;7.47;;;11.60;97.80;;;;;;5114003;28;20442;-57
2023/03/21 03:09:22;;;;;;;21.67;7.60;;;11.70;97.80;;;;;;5114124;28;20505;-57
2023/03/21 03:11:54;;;;;;;21.37;8.10;;;11.70;97.80;;;;;;5114087;28;20434;-57
2023/03/21 03:14:44;;;;;;;12.70;5.70;;;11.70;97.80;;;;;;5114047;28;20569;-57
2023/03/21 03:17:21;;;;;;;16.90;7.60;;;11.70;97.90;;;;;;5113943;28;20432;-57
2023/03/21 03:20:04;;;;;;;15.33;7.00;;;11.70;97.90;;;;;;5113942;28;20470;-57
2023/03/21 03:22:46;;;;;;;12.97;6.47;;;11.70;98.00;;;;;;5113891;28;20558;-57
2023/03/21 03:25:21;;;;;;;14.17;6.73;;;11.70;97.90;;;;;;5113890;28;20491;-57
2023/03/21 03:27:50;;;;;;;19.90;7.17;;;11.80;97.90;;;;;;5113885;28;20472;-57
2023/03/21 03:30:17;;;;;;;11.30;6.57;;;11.80;97.90;;;;;;5113809;28;20450;-57
2023/03/21 03:32:48;;;;;;;11.63;6.90;;;11.80;98.00;;;;;;5113829;28;20558;-58
2023/03/21 03:35:18;;;;;;;11.33;6.47;;;11.80;97.80;;;;;;5113686;28;20780;-58
2023/03/21 03:37:47;;;;;;;10.80;6.30;;;11.80;97.70;;;;;;5113591;28;20483;-57
2023/03/21 03:40:18;;;;;;;9.07;7.30;;;11.80;97.60;;;;;;5113639;28;20427;-57
2023/03/21 03:42:49;;;;;;;13.30;6.27;;;11.80;97.70;;;;;;5113750;28;20474;-57
2023/03/21 03:45:16;;;;;;;11.97;6.23;;;11.80;97.60;;;;;;5114339;28;20434;-57
2023/03/21 03:47:49;;;;;;;13.63;6.67;;;11.80;97.60;;;;;;5117852;28;20442;-57
2023/03/21 03:50:25;;;;;;;10.17;7.20;;;11.90;97.70;;;;;;5117494;28;20484;-57
2023/03/21 03:52:55;;;;;;;12.23;6.33;;;11.90;97.60;;;;;;5117671;28;20469;-58
2023/03/21 03:55:25;;;;;;;12.63;6.37;;;11.80;97.50;;;;;;5117828;28;20446;-57
2023/03/21 03:57:53;;;;;;;10.50;5.77;;;11.80;97.50;;;;;;5117686;28;20474;-57
2023/03/21 04:00:20;;;;;;;10.20;6.23;;;11.80;97.50;;;;;;5117565;28;20443;-57
2023/03/21 04:02:47;;;;;;;10.43;6.83;;;11.80;97.60;;;;;;5117210;28;20992;-57
2023/03/21 04:05:14;;;;;;;11.40;6.60;;;11.80;97.80;;;;;;5117504;28;20473;-57
2023/03/21 04:07:41;;;;;;;7.33;6.27;;;11.80;98.20;;;;;;5117718;28;20442;-57
2023/03/21 04:10:08;;;;;;;9.33;5.40;;;11.70;97.80;;;;;;5117212;28;20867;-57
2023/03/21 04:12:36;;;;;;;9.03;6.60;;;11.80;97.80;;;;;;5117455;28;20500;-58
2023/03/21 04:15:03;;;;;;;16.10;6.90;;;11.80;97.80;;;;;;5117305;28;20451;-57
2023/03/21 04:17:31;;;;;;;18.73;7.10;;;11.80;97.80;;;;;;5118350;28;20446;-57
2023/03/21 04:19:58;;;;;;;12.10;6.10;;;11.80;97.80;;;;;;5116996;28;20871;-57
2023/03/21 04:22:25;;;;;;;13.23;6.77;;;11.80;97.80;;;;;;5117047;28;20462;-57
2023/03/21 04:24:52;;;;;;;11.13;5.90;;;11.80;97.90;;;;;;5116895;28;20803;-57
2023/03/21 04:27:19;;;;;;;13.20;6.60;;;11.80;97.80;;;;;;5116593;28;20457;-58
2023/03/21 04:29:48;;;;;;;11.13;6.27;;;11.80;97.80;;;;;;5117086;28;20474;-57
2023/03/21 04:32:16;;;;;;;15.10;7.10;;;11.80;97.80;;;;;;5116645;28;20442;-57
2023/03/21 04:34:48;;;;;;;9.00;6.30;;;11.70;97.90;;;;;;5116798;28;20948;-57
2023/03/21 04:37:16;;;;;;;14.17;7.20;;;11.70;97.90;;;;;;5116672;28;20942;-57
2023/03/21 04:39:42;;;;;;;20.60;7.30;;;11.70;98.00;;;;;;5115296;28;20486;-57
2023/03/21 04:42:09;;;;;;;11.30;6.57;;;11.70;98.00;;;;;;5115531;28;20488;-58
2023/03/21 04:44:36;;;;;;;22.30;7.77;;;11.70;98.10;;;;;;5115613;28;20458;-58
2023/03/21 04:47:04;;;;;;;11.57;6.10;;;11.70;98.10;;;;;;5115511;28;20455;-57
2023/03/21 04:49:31;;;;;;;11.50;6.63;;;11.70;98.00;;;;;;5115542;28;20815;-57
2023/03/21 04:51:57;;;;;;;22.03;6.90;;;11.70;97.90;;;;;;5115529;28;20814;-57
2023/03/21 04:54:24;;;;;;;12.13;7.00;;;11.70;97.90;;;;;;5115278;28;20466;-57
2023/03/21 04:56:51;;;;;;;16.20;7.13;;;11.70;97.90;;;;;;5114937;28;20447;-58
2023/03/21 04:59:20;;;;;;;10.27;6.23;;;11.60;98.10;;;;;;5115262;28;20524;-57
2023/03/21 05:01:48;;;;;;;15.23;7.30;;;11.60;98.10;;;;;;5115277;28;20486;-57
2023/03/21 05:04:17;;;;;;;8.90;6.07;;;11.60;98.40;;;;;;5115323;28;20475;-57
2023/03/21 05:06:45;;;;;;;17.07;6.70;;;11.50;98.70;;;;;;5115166;28;20451;-57
2023/03/21 05:09:12;;;;;;;12.50;7.70;;;11.50;98.90;;;;;;5115148;28;20435;-57
2023/03/21 05:11:40;;;;;;;12.10;7.13;;;11.40;99.10;;;;;;5116063;28;20500;-57
2023/03/21 05:14:09;;;;;;;10.20;6.10;;;11.40;99.40;;;;;;5114721;28;20988;-57
2023/03/21 05:16:37;;;;;;;15.07;7.67;;;11.40;99.70;;;;;;5114839;28;20443;-57
2023/03/21 05:19:04;;;;;;;10.40;6.90;;;11.40;99.70;;;;;;5114781;28;20532;-57
2023/03/21 05:21:40;;;;;;;12.33;7.17;;;11.40;99.70;;;;;;5115016;28;20450;-57
2023/03/21 05:24:10;;;;;;;12.30;7.17;;;11.40;99.90;;;;;;5114918;28;20467;-57
2023/03/21 05:26:37;;;;;;;11.30;6.97;;;11.40;99.90;;;;;;5114892;28;20431;-56
2023/03/21 05:29:04;;;;;;;11.60;6.93;;;11.40;99.90;;;;;;5114877;28;20488;-57
2023/03/21 05:31:31;;;;;;;11.47;7.07;;;11.40;99.90;;;;;;5114812;28;20492;-57
2023/03/21 05:33:58;;;;;;;12.83;6.80;;;11.50;99.90;;;;;;5114657;28;20511;-57
2023/03/21 05:36:25;;;;;;;11.40;8.27;;;11.50;99.90;;;;;;5114752;28;20442;-57
2023/03/21 05:40:12;;;;;;;13.50;7.37;;;11.40;99.90;;;;;;5091065;28;20597;-56
2023/03/21 05:42:39;;;;;;;12.63;7.80;;;11.30;99.90;;;;;;5091127;28;20471;-56
2023/03/21 05:45:06;;;;;;;9.83;6.87;;;11.30;99.90;;;;;;5091497;28;20459;-56
2023/03/21 05:47:33;;;;;;;12.67;7.23;;;11.30;99.90;;;;;;5091823;28;20451;-55
2023/03/21 05:50:00;;;;;;;15.00;8.03;;;11.30;99.90;;;;;;5091507;28;20452;-56
2023/03/21 05:52:28;;;;;;;12.43;7.30;;;11.30;99.90;;;;;;5091443;28;20468;-56
2023/03/21 05:54:55;;;;;;;19.13;7.00;;;11.30;99.90;;;;;;5072616;28;20469;-56
2023/03/21 05:57:23;;;;;;;10.73;7.00;;;11.30;99.90;;;;;;5070689;28;20499;-55
2023/03/21 05:59:50;;;;;;;13.97;7.27;;;11.30;99.90;;;;;;5070705;28;20485;-56
2023/03/21 06:02:17;;;;;;;16.53;8.20;;;11.30;99.90;;;;;;5070624;28;20455;-56
2023/03/21 06:04:43;;;;;;;16.30;8.47;;;11.40;99.90;;;;;;5070537;28;20449;-57
2023/03/21 06:07:10;;;;;;;11.97;7.00;;;11.40;99.90;;;;;;5070422;28;20455;-56
2023/03/21 06:09:37;;;;;;;13.20;7.13;;;11.40;99.90;;;;;;5070231;28;20506;-56
2023/03/21 06:12:04;;;;;;;14.67;7.73;;;11.30;99.90;;;;;;5070129;28;20449;-56
2023/03/21 06:14:32;;;;;;;12.77;7.03;;;11.30;99.90;;;;;;5070141;28;20491;-56
2023/03/21 06:16:58;;;;;;;16.73;8.30;;;11.30;99.90;;;;;;5070206;28;20458;-56
2023/03/21 06:19:25;;;;;;;10.27;7.40;;;11.30;99.90;;;;;;5069932;28;20484;-56
2023/03/21 06:21:52;;;;;;;10.93;7.20;;;11.30;99.90;;;;;;5070081;28;20444;-56
2023/03/21 06:24:18;;;;;;;12.20;7.47;;;11.20;99.90;;;;;;5069865;28;20473;-56
2023/03/21 06:26:45;;;;;;;9.23;6.70;;;11.30;99.90;;;;;;5070191;28;20456;-56
2023/03/21 06:29:12;;;;;;;11.63;7.77;;;11.30;99.90;;;;;;5070512;28;20445;-56
2023/03/21 06:31:40;;;;;;;12.27;7.47;;;11.30;99.90;;;;;;5069953;28;20448;-56
2023/03/21 06:34:09;;;;;;;17.00;7.63;;;11.40;99.90;;;;;;5069724;28;20465;-56
2023/03/21 06:36:35;;;;;;;13.03;7.23;;;11.40;99.90;;;;;;5069678;28;20449;-56
2023/03/21 06:39:02;;;;;;;15.20;6.60;;;11.50;99.90;;;;;;5069269;28;20492;-56
2023/03/21 06:41:29;;;;;;;10.90;5.70;;;11.50;99.90;;;;;;5069317;28;20939;-57
2023/03/21 06:43:56;;;;;;;13.20;7.33;;;11.50;99.90;;;;;;5069342;28;20835;-56
2023/03/21 06:46:22;;;;;;;7.83;5.20;;;11.50;99.90;;;;;;5069416;28;20444;-57
2023/03/21 06:48:50;;;;;;;11.80;6.07;;;11.50;99.90;;;;;;5069441;28;20927;-56
2023/03/21 06:51:17;;;;;;;12.17;5.33;;;11.60;99.90;;;;;;5071035;28;20937;-56
2023/03/21 06:53:44;;;;;;;9.47;5.27;;;11.60;99.90;;;;;;5076016;28;20475;-56
2023/03/21 06:56:13;;;;;;;9.30;4.60;;;11.70;99.90;;;;;;5076177;28;20502;-56
2023/03/21 06:58:40;;;;;;;12.97;4.60;;;11.80;99.90;;;;;;5075740;28;20989;-56
2023/03/21 07:01:09;;;;;;;7.80;4.60;;;11.80;99.90;;;;;;5075950;28;20445;-56
2023/03/21 07:03:36;;;;;;;8.47;4.50;;;11.80;99.90;;;;;;5075839;28;20480;-56
2023/03/21 07:06:10;;;;;;;5.97;4.30;;;11.80;99.90;;;;;;5072967;28;20471;-57
2023/03/21 07:08:37;;;;;;;8.90;4.63;;;11.80;99.90;;;;;;5074522;28;20447;-56
2023/03/21 07:11:04;;;;;;;12.60;4.27;;;11.80;99.90;;;;;;5069897;28;20515;-56
2023/03/21 07:13:31;;;;;;;8.67;4.20;;;11.80;99.90;;;;;;5059935;28;20458;-56
2023/03/21 07:15:59;;;;;;;12.70;4.10;;;11.80;99.90;;;;;;5072297;28;20818;-58
2023/03/21 07:18:25;;;;;;;6.60;3.73;;;11.80;99.90;;;;;;5075362;28;20812;-58
2023/03/21 07:20:52;;;;;;;6.03;3.43;;;11.90;99.90;;;;;;5075482;28;20444;-57
2023/03/21 07:23:22;;;;;;;6.23;3.63;;;11.80;99.90;;;;;;5075439;28;20562;-57
2023/03/21 07:25:49;;;;;;;13.10;4.53;;;11.90;99.90;;;;;;5075558;28;20445;-57
2023/03/21 07:28:17;;;;;;;8.43;3.40;;;12.00;99.90;;;;;;5075802;28;20460;-57
2023/03/21 07:30:44;;;;;;;7.43;3.33;;;12.00;99.90;;;;;;5076136;28;20791;-57
2023/03/21 07:33:12;;;;;;;6.63;3.20;;;12.00;99.90;;;;;;5075296;28;20469;-57
2023/03/21 07:35:39;;;;;;;3.80;2.53;;;12.00;99.90;;;;;;5074860;28;20819;-57
2023/03/21 07:38:05;;;;;;;10.70;2.83;;;12.00;99.90;;;;;;5075136;28;20551;-57
2023/03/21 07:40:34;;;;;;;5.40;2.70;;;12.00;99.90;;;;;;5075128;28;20530;-55
2023/03/21 07:43:00;;;;;;;8.73;3.30;;;12.00;99.90;;;;;;5075113;28;20473;-57
2023/03/21 07:45:27;;;;;;;6.80;2.80;;;12.00;99.90;;;;;;5074991;28;20456;-57
2023/03/21 07:47:54;;;;;;;7.07;3.80;;;12.00;99.90;;;;;;5075557;28;20456;-57
2023/03/21 07:50:21;;;;;;;4.03;2.90;;;12.00;99.90;;;;;;5074698;28;20872;-57
2023/03/21 07:52:48;;;;;;;4.07;3.27;;;12.00;99.90;;;;;;5074936;28;20464;-56
2023/03/21 07:55:16;;;;;;;6.23;4.70;;;12.00;99.90;;;;;;5074873;28;20445;-56
2023/03/21 07:57:44;;;;;;;4.90;3.27;;;12.00;99.90;;;;;;5074858;28;20864;-56
2023/03/21 08:00:12;;;;;;;6.97;4.20;;;12.00;99.90;;;;;;5074686;28;20503;-56
2023/03/21 08:02:39;;;;;;;7.23;3.70;;;12.00;99.90;;;;;;5073348;28;21001;-57
2023/03/21 08:05:06;;;;;;;8.03;3.90;;;12.00;99.90;;;;;;5074246;28;20948;-57
2023/03/21 08:07:33;;;;;;;3.87;2.83;;;12.00;99.90;;;;;;5074625;28;20509;-57
2023/03/21 08:10:00;;;;;;;10.60;4.40;;;12.10;99.90;;;;;;5074589;28;20445;-56
2023/03/21 08:12:27;;;;;;;9.87;4.70;;;12.10;99.90;;;;;;5074502;28;20468;-57
2023/03/21 08:14:55;;;;;;;8.20;5.67;;;12.10;99.90;;;;;;5074251;28;20444;-56
2023/03/21 08:17:21;;;;;;;9.10;5.43;;;12.00;99.90;;;;;;5074223;28;20965;-56
2023/03/21 08:19:48;;;;;;;7.77;4.80;;;12.00;99.90;;;;;;5074344;28;20851;-56
2023/03/21 08:22:15;;;;;;;8.80;4.70;;;11.90;99.90;;;;;;5074325;28;20445;-56
2023/03/21 08:24:41;;;;;;;8.60;5.10;;;12.00;99.90;;;;;;5074265;28;20461;-56
2023/03/21 08:27:08;;;;;;;13.63;5.30;;;12.00;99.90;;;;;;5074297;28;20449;-56
2023/03/21 08:29:39;;;;;;;13.87;6.00;;;12.10;99.90;;;;;;5074211;28;20445;-56
2023/03/21 08:32:07;;;;;;;11.20;5.33;;;12.10;99.90;;;;;;5074069;28;20437;-57
2023/03/21 08:34:34;;;;;;;13.90;6.47;;;12.10;99.90;;;;;;5074102;28;20449;-57
2023/03/21 08:37:01;;;;;;;11.83;6.17;;;12.00;99.90;;;;;;5074086;28;20445;-57
2023/03/21 08:39:28;;;;;;;12.17;6.50;;;12.10;99.90;;;;;;5073573;28;20495;-57
2023/03/21 08:41:54;;;;;;;15.43;6.77;;;12.00;99.90;;;;;;5074319;28;20535;-57
2023/03/21 08:44:21;;;;;;;16.43;6.83;;;12.00;99.90;;;;;;5075001;28;20471;-57
2023/03/21 08:46:48;;;;;;;11.77;7.50;;;12.10;99.90;;;;;;5074792;28;20447;-57
2023/03/21 08:49:16;;;;;;;14.03;7.93;;;12.10;99.90;;;;;;5074292;28;20470;-57
2023/03/21 08:51:44;;;;;;;11.83;7.03;;;12.20;99.90;;;;;;5074159;28;20494;-57
2023/03/21 08:54:19;;;;;;;18.07;7.87;;;12.10;99.90;;;;;;5061074;28;20862;-58
2023/03/21 08:56:46;;;;;;;11.17;6.70;;;12.20;99.90;;;;;;5053547;28;20441;-57
2023/03/21 08:59:12;;;;;;;11.87;7.00;;;12.20;99.90;;;;;;5067507;28;20484;-57
2023/03/21 09:01:39;;;;;;;21.00;7.43;;;12.10;99.90;;;;;;5073526;28;20460;-58
2023/03/21 09:04:09;;;;;;;11.07;6.63;;;12.20;99.90;;;;;;5073679;28;20481;-57
2023/03/21 09:06:39;;;;;;;13.30;6.67;;;12.20;99.90;;;;;;5073867;28;20550;-57
2023/03/21 09:09:08;;;;;;;9.57;7.20;;;12.30;99.90;;;;;;5073563;28;20436;-57
2023/03/21 09:11:35;;;;;;;8.30;5.27;;;12.30;99.90;;;;;;5073517;28;20457;-57
2023/03/21 09:14:02;;;;;;;7.30;5.73;;;12.30;99.90;;;;;;5073161;28;20586;-57
2023/03/21 09:16:28;;;;;;;10.40;7.00;;;12.30;99.90;;;;;;5073383;28;20478;-57
2023/03/21 09:18:57;;;;;;;11.63;6.73;;;12.30;99.90;;;;;;5073396;28;20445;-57
2023/03/21 09:21:26;;;;;;;7.60;6.23;;;12.30;99.90;;;;;;5073567;28;20552;-57
2023/03/21 09:23:57;;;;;;;14.50;6.83;;;12.30;99.90;;;;;;5073071;28;20982;-57
2023/03/21 09:26:26;;;;;;;14.00;7.50;;;12.30;99.90;;;;;;5073588;28;20502;-57
2023/03/21 09:28:54;;;;;;;10.53;6.50;;;12.30;99.90;;;;;;5073400;28;20484;-57
2023/03/21 09:31:21;;;;;;;7.10;5.80;;;12.40;99.90;;;;;;5073411;28;20463;-57
2023/03/21 09:33:48;;;;;;;9.33;5.10;;;12.50;99.90;;;;;;5072931;28;20821;-57
2023/03/21 09:36:17;;;;;;;9.00;6.67;;;12.60;99.90;;;;;;5072860;28;20978;-57
2023/03/21 09:38:46;;;;;;;10.77;5.93;;;12.60;99.90;;;;;;5072910;28;20460;-57
2023/03/21 09:41:29;;;;;;;7.23;6.00;;;12.70;99.90;;;;;;5072911;28;21119;-57
2023/03/21 09:44:11;;;;;;;11.07;5.53;;;12.70;99.90;;;;;;5073239;28;20533;-57
2023/03/21 09:46:44;;;;;;;13.90;6.20;;;12.80;99.90;;;;;;5069106;28;20440;-58
2023/03/21 09:49:16;;;;;;;11.13;6.40;;;12.90;99.90;;;;;;5053171;28;20430;-57
2023/03/21 09:51:47;;;;;;;8.80;5.90;;;12.80;99.90;;;;;;5053338;28;20434;-57
2023/03/21 09:54:19;;;;;;;11.63;6.40;;;12.90;99.90;;;;;;5053184;28;20469;-59
2023/03/21 09:56:49;;;;;;;8.70;5.70;;;12.90;99.90;;;;;;5053144;28;20799;-57
2023/03/21 09:59:22;;;;;;;10.13;6.27;;;12.90;99.90;;;;;;5053100;28;20437;-56
2023/03/21 10:01:49;;;;;;;11.17;6.97;;;12.90;99.90;;;;;;5052777;28;20437;-56
2023/03/21 10:04:17;;;;;;;11.20;6.40;;;13.00;99.90;;;;;;5052869;28;20465;-57
2023/03/21 10:06:48;;;;;;;8.30;5.50;;;13.10;99.90;;;;;;5052927;28;20461;-57
2023/03/21 10:09:21;;;;;;;11.60;6.57;;;13.10;99.90;;;;;;5052998;28;20426;-57
2023/03/21 10:11:53;;;;;;;14.20;6.77;;;13.30;99.90;;;;;;5053048;28;20440;-57
2023/03/21 10:14:25;;;;;;;10.67;4.93;;;13.40;99.90;;;;;;5052809;28;20462;-57
2023/03/21 10:16:57;;;;;;;6.50;5.03;;;13.60;99.90;;;;;;5052924;28;20471;-57
2023/03/21 10:19:24;;;;;;;11.00;6.77;;;13.80;99.90;;;;;;5052788;28;20445;-57
2023/03/21 10:21:52;;;;;;;11.10;5.97;;;13.80;99.80;;;;;;5052515;28;20817;-57
2023/03/21 10:24:21;;;;;;;12.17;6.20;;;13.80;99.90;;;;;;5052065;28;20468;-57
2023/03/21 10:26:51;;;;;;;7.83;5.07;;;13.90;99.90;;;;;;5056770;28;20503;-57
2023/03/21 10:29:22;;;;;;;10.60;5.73;;;14.00;99.50;;;;;;5057368;28;20495;-57
2023/03/21 10:31:51;;;;;;;9.80;6.10;;;14.10;99.20;;;;;;5057308;28;20473;-58
2023/03/21 10:34:24;;;;;;;14.43;6.13;;;14.10;98.80;;;;;;5076145;28;20472;-57
2023/03/21 10:36:51;;;;;;;8.23;5.40;;;14.30;99.00;;;;;;5074569;28;20468;-58
2023/03/21 10:39:26;;;;;;;8.90;4.90;;;14.50;98.80;;;;;;5068665;28;20821;-57
2023/03/21 10:41:55;;;;;;;12.40;6.03;;;14.70;98.10;;;;;;5056978;28;20437;-57
2023/03/21 10:44:21;;;;;;;8.30;5.30;;;15.00;97.60;;;;;;5056206;28;20556;-57
2023/03/21 10:46:53;;;;;;;9.90;5.50;;;15.00;96.30;;;;;;5057125;28;20997;-57
2023/03/21 10:49:21;;;;;;;9.70;5.60;;;15.00;95.60;;;;;;5056963;28;20799;-58
2023/03/21 10:51:51;;;;;;;4.90;4.40;;;15.00;95.70;;;;;;5059007;28;20448;-58
2023/03/21 10:54:20;;;;;;;9.47;5.30;;;14.90;95.40;;;;;;5071803;28;20469;-58
2023/03/21 10:56:57;;;;;;;8.40;4.60;;;14.90;95.10;;;;;;5075961;28;20449;-57
2023/03/21 10:59:27;;;;;;;8.67;5.30;;;15.00;95.20;;;;;;5075918;28;20441;-57
2023/03/21 11:01:56;;;;;;;8.13;5.40;;;15.10;95.10;;;;;;5075982;28;20433;-57
2023/03/21 11:04:26;;;;;;;12.77;5.97;;;15.20;94.10;;;;;;5075746;28;20460;-57
2023/03/21 11:06:55;;;;;;;7.90;5.20;;;15.40;94.00;;;;;;5075437;28;20824;-58
2023/03/21 11:09:24;;;;;;;12.80;5.43;;;15.60;93.50;;;;;;5075481;28;20942;-57
2023/03/21 11:11:54;;;;;;;5.07;4.40;;;15.70;93.40;;;;;;5075810;28;20452;-58
2023/03/21 11:14:36;;;;;;;7.47;5.40;;;15.50;92.60;;;;;;5075533;28;20475;-58
2023/03/21 11:17:18;;;;;;;9.37;4.27;;;15.40;92.70;;;;;;5075826;28;20433;-57
2023/03/21 11:19:49;;;;;;;11.67;5.17;;;15.20;92.80;;;;;;5075624;28;20433;-58
2023/03/21 11:22:16;;;;;;;9.90;4.50;;;15.00;93.20;;;;;;5075199;28;20467;-58
2023/03/21 11:24:50;;;;;;;7.33;4.87;;;15.00;93.60;;;;;;5075539;28;20444;-57
2023/03/21 11:27:17;;;;;;;8.40;4.70;;;14.90;93.70;;;;;;5075635;28;20426;-57
2023/03/21 11:29:48;;;;;;;6.63;4.80;;;14.90;93.80;;;;;;5073164;28;20461;-58
2023/03/21 11:32:21;;;;;;;11.50;4.90;;;14.90;93.90;;;;;;5054887;28;20906;-57
2023/03/21 11:34:52;;;;;;;7.07;4.50;;;14.80;93.70;;;;;;5055500;28;20479;-59
2023/03/21 11:37:21;;;;;;;9.57;5.17;;;14.70;94.10;;;;;;5055393;28;20430;-57
2023/03/21 11:39:54;;;;;;;10.60;5.30;;;14.60;94.10;;;;;;5055954;28;20465;-57
2023/03/21 11:42:30;;;;;;;5.00;4.40;;;14.60;94.70;;;;;;5055950;28;20438;-58
2023/03/21 11:45:10;;;;;;;8.37;5.33;;;14.50;95.00;;;;;;5055322;28;20471;-58
2023/03/21 11:47:37;;;;;;;8.70;5.50;;;14.40;95.20;;;;;;5055537;28;20430;-57
2023/03/21 11:50:16;;;;;;;7.40;5.43;;;14.30;95.80;;;;;;5067213;28;20448;-58
2023/03/21 11:52:50;;;;;;;9.60;5.30;;;14.30;96.20;;;;;;5075275;28;20497;-57
2023/03/21 11:55:31;;;;;;;7.50;6.23;;;14.30;96.30;;;;;;5055222;28;20433;-57
2023/03/21 11:58:09;;;;;;;8.40;5.07;;;14.10;96.40;;;;;;5054896;28;20425;-57
2023/03/21 12:00:43;;;;;;;6.73;5.30;;;14.00;97.10;;;;;;5054844;28;20469;-57
2023/03/21 12:03:38;;;;;;;8.83;5.63;;;14.00;97.10;;;;;;5054547;28;20473;-57
2023/03/21 12:06:16;;;;;;;10.87;5.13;;;13.90;97.60;;;;;;5054783;28;20426;-57
2023/03/21 12:08:51;;;;;;;6.40;5.43;;;13.80;97.70;;;;;;5055698;28;20432;-57
2023/03/21 12:11:25;;;;;;;8.37;5.53;;;13.80;97.70;;;;;;5054674;28;20434;-57
2023/03/21 12:14:03;;;;;;;12.33;6.40;;;13.80;98.30;;;;;;5054612;28;20896;-57
2023/03/21 12:16:43;;;;;;;9.37;6.47;;;13.90;98.70;;;;;;5054588;28;20907;-56
2023/03/21 12:19:21;;;;;;;6.70;5.80;;;14.00;98.80;;;;;;5054274;28;20930;-57
2023/03/21 12:21:57;;;;;;;9.90;5.90;;;14.20;98.90;;;;;;5054555;28;20477;-57
2023/03/21 12:24:26;;;;;;;6.03;5.50;;;14.40;98.20;;;;;;5054475;28;20469;-57
2023/03/21 12:27:00;;;;;;;7.10;5.30;;;14.60;97.50;;;;;;5054478;28;20446;-57
2023/03/21 12:29:40;;;;;;;6.23;5.13;;;14.80;97.50;;;;;;5054462;28;20444;-57
2023/03/21 12:32:21;;;;;;;11.20;5.80;;;15.00;96.90;;;;;;5054167;28;20430;-58
2023/03/21 12:35:13;;;;;;;6.83;5.17;;;15.20;95.70;;;;;;5053851;28;20827;-59
2023/03/21 12:37:52;;;;;;;8.00;4.70;;;15.20;95.20;;;;;;5054011;28;20440;-58
2023/03/21 12:40:36;;;;;;;9.83;5.50;;;15.30;95.00;;;;;;5053749;28;20982;-57
2023/03/21 12:43:39;;;;;;;8.93;5.20;;;15.40;95.10;;;;;;5053714;28;20473;-58
2023/03/21 12:46:13;;;;;;;4.93;4.37;;;15.50;94.80;;;;;;5053662;28;20449;-57
2023/03/21 12:48:46;;;;;;;7.80;5.37;;;15.50;94.70;;;;;;5053404;28;20453;-58
2023/03/21 12:51:15;;;;;;;9.80;5.07;;;15.60;94.30;;;;;;5053929;28;20440;-57
2023/03/21 12:54:04;;;;;;;16.83;6.50;;;15.80;93.40;;;;;;5053863;28;20530;-57
2023/03/21 12:56:33;;;;;;;7.93;6.27;;;15.80;93.20;;;;;;5051351;28;20511;-58
2023/03/21 12:59:08;;;;;;;9.43;6.20;;;16.00;92.30;;;;;;5053427;28;20943;-57